sensor_id;sensor_type;location;lat;lon;timestamp;pressure;altitude;pressure_sealevel;temperature
72405;BMP280;60395;52.020;113.548;2023-05-24T00:02:19;91411.66;;;31.27
72405;BMP280;60395;52.020;113.548;2023-05-24T00:06:13;91404.97;;;30.71
72405;BMP280;60395;52.020;113.548;2023-05-24T00:09:16;91402.53;;;32.59
72405;BMP280;60395;52.020;113.548;2023-05-24T00:12:20;91398.09;;;31.27
72405;BMP280;60395;52.020;113.548;2023-05-24T00:15:23;91391.69;;;31.35
72405;BMP280;60395;52.020;113.548;2023-05-24T00:18:30;91390.97;;;31.41
72405;BMP280;60395;52.020;113.548;2023-05-24T00:21:38;91386.50;;;31.55
72405;BMP280;60395;52.020;113.548;2023-05-24T00:24:42;91389.69;;;30.74
72405;BMP280;60395;52.020;113.548;2023-05-24T00:27:52;91385.66;;;30.40
72405;BMP280;60395;52.020;113.548;2023-05-24T00:30:59;91400.00;;;30.56
72405;BMP280;60395;52.020;113.548;2023-05-24T00:34:04;91384.31;;;31.29
72405;BMP280;60395;52.020;113.548;2023-05-24T00:37:07;91382.09;;;30.02
72405;BMP280;60395;52.020;113.548;2023-05-24T00:40:11;91388.38;;;29.82
72405;BMP280;60395;52.020;113.548;2023-05-24T00:43:15;91393.53;;;28.79
72405;BMP280;60395;52.020;113.548;2023-05-24T00:46:29;91381.97;;;28.91
72405;BMP280;60395;52.020;113.548;2023-05-24T00:49:33;91390.81;;;27.56
72405;BMP280;60395;52.020;113.548;2023-05-24T00:52:37;91383.13;;;26.17
72405;BMP280;60395;52.020;113.548;2023-05-24T00:55:41;91380.88;;;24.48
72405;BMP280;60395;52.020;113.548;2023-05-24T00:58:44;91373.66;;;23.30
72405;BMP280;60395;52.020;113.548;2023-05-24T01:01:48;91376.44;;;22.76
72405;BMP280;60395;52.020;113.548;2023-05-24T01:04:51;91372.25;;;22.47
72405;BMP280;60395;52.020;113.548;2023-05-24T01:11:52;91374.63;;;21.30
72405;BMP280;60395;52.020;113.548;2023-05-24T01:15:21;91378.44;;;21.25
72405;BMP280;60395;52.020;113.548;2023-05-24T01:18:30;91369.72;;;20.41
72405;BMP280;60395;52.020;113.548;2023-05-24T01:21:37;91378.78;;;20.09
72405;BMP280;60395;52.020;113.548;2023-05-24T01:25:01;91369.72;;;20.06
72405;BMP280;60395;52.020;113.548;2023-05-24T01:28:07;91379.22;;;19.78
72405;BMP280;60395;52.020;113.548;2023-05-24T01:31:12;91372.81;;;19.83
72405;BMP280;60395;52.020;113.548;2023-05-24T01:34:16;91365.84;;;19.60
72405;BMP280;60395;52.020;113.548;2023-05-24T01:37:21;91375.16;;;19.42
72405;BMP280;60395;52.020;113.548;2023-05-24T01:40:24;91368.63;;;19.58
72405;BMP280;60395;52.020;113.548;2023-05-24T01:43:37;91359.31;;;19.77
72405;BMP280;60395;52.020;113.548;2023-05-24T01:46:46;91363.28;;;19.95
72405;BMP280;60395;52.020;113.548;2023-05-24T01:50:01;91356.09;;;20.27
72405;BMP280;60395;52.020;113.548;2023-05-24T01:53:12;91353.88;;;20.64
72405;BMP280;60395;52.020;113.548;2023-05-24T01:56:16;91350.56;;;20.81
72405;BMP280;60395;52.020;113.548;2023-05-24T01:59:23;91363.59;;;20.85
72405;BMP280;60395;52.020;113.548;2023-05-24T02:02:28;91354.06;;;20.71
72405;BMP280;60395;52.020;113.548;2023-05-24T02:05:32;91352.81;;;20.61
72405;BMP280;60395;52.020;113.548;2023-05-24T02:08:39;91346.53;;;20.56
72405;BMP280;60395;52.020;113.548;2023-05-24T02:11:43;91361.28;;;20.47
72405;BMP280;60395;52.020;113.548;2023-05-24T02:14:46;91355.94;;;20.21
72405;BMP280;60395;52.020;113.548;2023-05-24T02:17:52;91353.41;;;20.10
72405;BMP280;60395;52.020;113.548;2023-05-24T02:20:57;91350.59;;;20.29
72405;BMP280;60395;52.020;113.548;2023-05-24T02:24:00;91347.31;;;20.63
72405;BMP280;60395;52.020;113.548;2023-05-24T02:27:04;91346.19;;;20.77
72405;BMP280;60395;52.020;113.548;2023-05-24T02:30:07;91347.31;;;20.72
72405;BMP280;60395;52.020;113.548;2023-05-24T02:33:11;91345.09;;;20.57
72405;BMP280;60395;52.020;113.548;2023-05-24T02:36:14;91337.13;;;20.49
72405;BMP280;60395;52.020;113.548;2023-05-24T02:39:19;91334.44;;;20.57
72405;BMP280;60395;52.020;113.548;2023-05-24T02:42:22;91331.13;;;20.74
72405;BMP280;60395;52.020;113.548;2023-05-24T02:45:26;91331.25;;;20.89
72405;BMP280;60395;52.020;113.548;2023-05-24T02:48:29;91333.47;;;20.78
72405;BMP280;60395;52.020;113.548;2023-05-24T02:51:33;91331.00;;;20.67
72405;BMP280;60395;52.020;113.548;2023-05-24T02:54:36;91343.06;;;20.58
72405;BMP280;60395;52.020;113.548;2023-05-24T02:57:39;91343.09;;;20.49
72405;BMP280;60395;52.020;113.548;2023-05-24T03:00:43;91318.94;;;20.34
72405;BMP280;60395;52.020;113.548;2023-05-24T03:03:47;91328.94;;;20.08
72405;BMP280;60395;52.020;113.548;2023-05-24T03:06:51;91324.69;;;19.94
72405;BMP280;60395;52.020;113.548;2023-05-24T03:09:55;91331.44;;;19.93
72405;BMP280;60395;52.020;113.548;2023-05-24T03:12:59;91328.16;;;19.92
72405;BMP280;60395;52.020;113.548;2023-05-24T03:16:03;91324.88;;;20.00
72405;BMP280;60395;52.020;113.548;2023-05-24T03:19:07;91315.00;;;20.16
72405;BMP280;60395;52.020;113.548;2023-05-24T03:22:11;91319.56;;;20.17
72405;BMP280;60395;52.020;113.548;2023-05-24T03:25:15;91313.41;;;19.85
72405;BMP280;60395;52.020;113.548;2023-05-24T03:28:20;91323.97;;;19.50
72405;BMP280;60395;52.020;113.548;2023-05-24T03:31:24;91312.19;;;19.39
72405;BMP280;60395;52.020;113.548;2023-05-24T03:34:28;91316.25;;;19.38
72405;BMP280;60395;52.020;113.548;2023-05-24T03:37:32;91305.28;;;19.33
72405;BMP280;60395;52.020;113.548;2023-05-24T03:40:35;91307.34;;;19.41
72405;BMP280;60395;52.020;113.548;2023-05-24T03:43:41;91313.19;;;19.52
72405;BMP280;60395;52.020;113.548;2023-05-24T03:46:49;91310.53;;;19.61
72405;BMP280;60395;52.020;113.548;2023-05-24T03:49:52;91305.25;;;19.78
72405;BMP280;60395;52.020;113.548;2023-05-24T03:52:56;91297.72;;;19.72
72405;BMP280;60395;52.020;113.548;2023-05-24T03:56:00;91291.41;;;19.58
72405;BMP280;60395;52.020;113.548;2023-05-24T03:59:05;91286.69;;;19.50
72405;BMP280;60395;52.020;113.548;2023-05-24T04:02:08;91284.56;;;19.70
72405;BMP280;60395;52.020;113.548;2023-05-24T04:05:12;91287.56;;;19.83
72405;BMP280;60395;52.020;113.548;2023-05-24T04:08:16;91292.56;;;19.87
72405;BMP280;60395;52.020;113.548;2023-05-24T04:11:20;91283.16;;;19.88
72405;BMP280;60395;52.020;113.548;2023-05-24T04:14:24;91280.97;;;19.99
72405;BMP280;60395;52.020;113.548;2023-05-24T04:17:27;91273.16;;;20.06
72405;BMP280;60395;52.020;113.548;2023-05-24T04:20:37;91275.94;;;20.29
72405;BMP280;60395;52.020;113.548;2023-05-24T04:23:40;91270.94;;;20.43
72405;BMP280;60395;52.020;113.548;2023-05-24T04:26:43;91266.06;;;20.45
72405;BMP280;60395;52.020;113.548;2023-05-24T04:29:48;91272.97;;;20.42
72405;BMP280;60395;52.020;113.548;2023-05-24T04:32:52;91270.13;;;20.53
72405;BMP280;60395;52.020;113.548;2023-05-24T04:35:56;91263.09;;;20.15
72405;BMP280;60395;52.020;113.548;2023-05-24T04:39:01;91259.34;;;19.95
72405;BMP280;60395;52.020;113.548;2023-05-24T04:42:07;91237.38;;;19.86
72405;BMP280;60395;52.020;113.548;2023-05-24T04:45:11;91245.25;;;19.88
72405;BMP280;60395;52.020;113.548;2023-05-24T04:48:14;91248.34;;;19.64
72405;BMP280;60395;52.020;113.548;2023-05-24T04:51:18;91241.63;;;19.57
72405;BMP280;60395;52.020;113.548;2023-05-24T04:54:21;91237.38;;;19.60
72405;BMP280;60395;52.020;113.548;2023-05-24T04:57:25;91239.28;;;19.79
72405;BMP280;60395;52.020;113.548;2023-05-24T05:00:29;91242.28;;;20.00
72405;BMP280;60395;52.020;113.548;2023-05-24T05:03:32;91241.00;;;20.16
72405;BMP280;60395;52.020;113.548;2023-05-24T05:06:36;91232.69;;;20.29
72405;BMP280;60395;52.020;113.548;2023-05-24T05:09:45;91229.22;;;20.22
72405;BMP280;60395;52.020;113.548;2023-05-24T05:12:48;91231.41;;;20.19
72405;BMP280;60395;52.020;113.548;2023-05-24T05:15:53;91233.97;;;20.13
72405;BMP280;60395;52.020;113.548;2023-05-24T05:18:57;91235.03;;;20.16
72405;BMP280;60395;52.020;113.548;2023-05-24T05:22:01;91226.72;;;20.20
72405;BMP280;60395;52.020;113.548;2023-05-24T05:25:05;91225.28;;;20.29
72405;BMP280;60395;52.020;113.548;2023-05-24T05:28:08;91229.84;;;20.31
72405;BMP280;60395;52.020;113.548;2023-05-24T05:31:12;91235.50;;;20.18
72405;BMP280;60395;52.020;113.548;2023-05-24T05:34:15;91216.06;;;20.03
72405;BMP280;60395;52.020;113.548;2023-05-24T05:37:18;91205.28;;;19.96
72405;BMP280;60395;52.020;113.548;2023-05-24T05:40:22;91217.19;;;20.06
72405;BMP280;60395;52.020;113.548;2023-05-24T05:43:25;91223.63;;;20.00
72405;BMP280;60395;52.020;113.548;2023-05-24T05:46:29;91222.19;;;20.01
72405;BMP280;60395;52.020;113.548;2023-05-24T05:49:32;91214.38;;;19.99
72405;BMP280;60395;52.020;113.548;2023-05-24T05:52:38;91216.06;;;20.03
72405;BMP280;60395;52.020;113.548;2023-05-24T05:55:41;91199.78;;;20.07
72405;BMP280;60395;52.020;113.548;2023-05-24T05:58:45;91225.34;;;20.12
72405;BMP280;60395;52.020;113.548;2023-05-24T06:01:48;91227.66;;;20.08
72405;BMP280;60395;52.020;113.548;2023-05-24T06:04:51;91227.22;;;20.05
72405;BMP280;60395;52.020;113.548;2023-05-24T06:07:55;91221.09;;;20.07
72405;BMP280;60395;52.020;113.548;2023-05-24T06:11:00;91224.69;;;20.03
72405;BMP280;60395;52.020;113.548;2023-05-24T06:14:03;91219.69;;;20.08
72405;BMP280;60395;52.020;113.548;2023-05-24T06:17:07;91221.84;;;20.14
72405;BMP280;60395;52.020;113.548;2023-05-24T06:20:11;91211.34;;;20.29
72405;BMP280;60395;52.020;113.548;2023-05-24T06:23:17;91211.63;;;20.42
72405;BMP280;60395;52.020;113.548;2023-05-24T06:26:21;91223.06;;;20.49
72405;BMP280;60395;52.020;113.548;2023-05-24T06:29:24;91219.00;;;20.42
72405;BMP280;60395;52.020;113.548;2023-05-24T06:32:28;91211.00;;;20.42
72405;BMP280;60395;52.020;113.548;2023-05-24T06:35:32;91197.97;;;20.46
72405;BMP280;60395;52.020;113.548;2023-05-24T06:38:35;91197.97;;;20.46
72405;BMP280;60395;52.020;113.548;2023-05-24T06:41:39;91196.59;;;20.39
72405;BMP280;60395;52.020;113.548;2023-05-24T06:44:42;91206.66;;;20.21
72405;BMP280;60395;52.020;113.548;2023-05-24T06:47:46;91183.13;;;20.15
72405;BMP280;60395;52.020;113.548;2023-05-24T06:50:50;91199.91;;;20.22
72405;BMP280;60395;52.020;113.548;2023-05-24T06:53:53;91192.22;;;20.26
72405;BMP280;60395;52.020;113.548;2023-05-24T06:56:58;91195.47;;;20.36
72405;BMP280;60395;52.020;113.548;2023-05-24T07:00:01;91193.00;;;20.34
72405;BMP280;60395;52.020;113.548;2023-05-24T07:03:10;91198.78;;;20.36
72405;BMP280;60395;52.020;113.548;2023-05-24T07:06:14;91185.81;;;20.23
72405;BMP280;60395;52.020;113.548;2023-05-24T07:09:18;91189.53;;;20.26
72405;BMP280;60395;52.020;113.548;2023-05-24T07:12:22;91192.19;;;20.44
72405;BMP280;60395;52.020;113.548;2023-05-24T07:15:25;91190.41;;;20.57
72405;BMP280;60395;52.020;113.548;2023-05-24T07:18:29;91185.38;;;20.62
72405;BMP280;60395;52.020;113.548;2023-05-24T07:21:33;91187.78;;;20.49
72405;BMP280;60395;52.020;113.548;2023-05-24T07:24:38;91189.22;;;20.39
72405;BMP280;60395;52.020;113.548;2023-05-24T07:27:42;91192.69;;;20.29
72405;BMP280;60395;52.020;113.548;2023-05-24T07:30:45;91190.81;;;20.27
72405;BMP280;60395;52.020;113.548;2023-05-24T07:33:49;91178.69;;;20.46
72405;BMP280;60395;52.020;113.548;2023-05-24T07:36:53;91179.72;;;20.66
72405;BMP280;60395;52.020;113.548;2023-05-24T07:40:00;91179.78;;;20.89
72405;BMP280;60395;52.020;113.548;2023-05-24T07:43:03;91180.22;;;20.92
72405;BMP280;60395;52.020;113.548;2023-05-24T07:46:07;91171.31;;;20.87
72405;BMP280;60395;52.020;113.548;2023-05-24T07:49:12;91186.34;;;20.90
72405;BMP280;60395;52.020;113.548;2023-05-24T07:52:16;91168.78;;;20.85
72405;BMP280;60395;52.020;113.548;2023-05-24T07:55:20;91168.47;;;20.89
72405;BMP280;60395;52.020;113.548;2023-05-24T07:58:23;91176.59;;;20.95
72405;BMP280;60395;52.020;113.548;2023-05-24T08:01:27;91180.34;;;20.98
72405;BMP280;60395;52.020;113.548;2023-05-24T08:04:31;91169.91;;;20.88
72405;BMP280;60395;52.020;113.548;2023-05-24T08:07:35;91171.66;;;20.83
72405;BMP280;60395;52.020;113.548;2023-05-24T08:10:38;91166.59;;;20.55
72405;BMP280;60395;52.020;113.548;2023-05-24T08:13:43;91178.03;;;20.62
72405;BMP280;60395;52.020;113.548;2023-05-24T08:16:46;91168.06;;;20.78
72405;BMP280;60395;52.020;113.548;2023-05-24T08:19:50;91164.28;;;20.75
72405;BMP280;60395;52.020;113.548;2023-05-24T08:22:53;91177.06;;;20.57
72405;BMP280;60395;52.020;113.548;2023-05-24T08:25:57;91170.56;;;20.30
72405;BMP280;60395;52.020;113.548;2023-05-24T08:29:00;91175.28;;;20.30
72405;BMP280;60395;52.020;113.548;2023-05-24T08:32:05;91180.72;;;20.45
72405;BMP280;60395;52.020;113.548;2023-05-24T08:35:12;91172.84;;;20.52
72405;BMP280;60395;52.020;113.548;2023-05-24T08:38:19;91178.50;;;20.56
72405;BMP280;60395;52.020;113.548;2023-05-24T08:41:22;91175.34;;;20.62
72405;BMP280;60395;52.020;113.548;2023-05-24T08:44:27;91177.06;;;20.57
72405;BMP280;60395;52.020;113.548;2023-05-24T08:47:31;91190.25;;;20.59
72405;BMP280;60395;52.020;113.548;2023-05-24T08:50:35;91182.72;;;20.62
72405;BMP280;60395;52.020;113.548;2023-05-24T08:53:40;91186.03;;;20.54
72405;BMP280;60395;52.020;113.548;2023-05-24T08:56:44;91193.63;;;20.25
72405;BMP280;60395;52.020;113.548;2023-05-24T08:59:48;91198.97;;;20.25
72405;BMP280;60395;52.020;113.548;2023-05-24T09:02:52;91198.63;;;20.38
72405;BMP280;60395;52.020;113.548;2023-05-24T09:05:56;91187.47;;;20.44
72405;BMP280;60395;52.020;113.548;2023-05-24T09:09:02;91188.69;;;20.62
72405;BMP280;60395;52.020;113.548;2023-05-24T09:12:06;91186.94;;;20.67
72405;BMP280;60395;52.020;113.548;2023-05-24T09:15:10;91184.16;;;20.84
72405;BMP280;60395;52.020;113.548;2023-05-24T09:18:14;91191.69;;;20.50
72405;BMP280;60395;52.020;113.548;2023-05-24T09:21:18;91189.22;;;20.39
72405;BMP280;60395;52.020;113.548;2023-05-24T09:24:22;91199.06;;;20.41
72405;BMP280;60395;52.020;113.548;2023-05-24T09:27:26;91196.28;;;20.34
72405;BMP280;60395;52.020;113.548;2023-05-24T09:30:30;91193.81;;;20.15
72405;BMP280;60395;52.020;113.548;2023-05-24T09:33:34;91194.28;;;20.09
72405;BMP280;60395;52.020;113.548;2023-05-24T09:36:40;91191.78;;;20.07
72405;BMP280;60395;52.020;113.548;2023-05-24T09:39:46;91201.19;;;20.06
72405;BMP280;60395;52.020;113.548;2023-05-24T09:43:02;91200.41;;;20.07
72405;BMP280;60395;52.020;113.548;2023-05-24T09:46:06;91204.97;;;20.00
72405;BMP280;60395;52.020;113.548;2023-05-24T09:49:09;91199.16;;;20.06
72405;BMP280;60395;52.020;113.548;2023-05-24T09:52:13;91203.81;;;20.14
72405;BMP280;60395;52.020;113.548;2023-05-24T09:55:18;91196.00;;;20.21
72405;BMP280;60395;52.020;113.548;2023-05-24T09:58:28;91203.84;;;20.23
72405;BMP280;60395;52.020;113.548;2023-05-24T10:01:33;91209.97;;;20.13
72405;BMP280;60395;52.020;113.548;2023-05-24T10:04:38;91212.00;;;20.04
72405;BMP280;60395;52.020;113.548;2023-05-24T10:07:42;91211.22;;;19.88
72405;BMP280;60395;52.020;113.548;2023-05-24T10:10:46;91223.00;;;19.74
72405;BMP280;60395;52.020;113.548;2023-05-24T10:13:49;91218.91;;;19.58
72405;BMP280;60395;52.020;113.548;2023-05-24T10:16:53;91222.00;;;19.43
72405;BMP280;60395;52.020;113.548;2023-05-24T10:19:56;91222.44;;;19.29
72405;BMP280;60395;52.020;113.548;2023-05-24T10:23:03;91225.38;;;19.08
72405;BMP280;60395;52.020;113.548;2023-05-24T10:26:13;91234.84;;;18.96
72405;BMP280;60395;52.020;113.548;2023-05-24T10:29:47;91237.66;;;18.85
72405;BMP280;60395;52.020;113.548;2023-05-24T10:32:55;91237.28;;;18.72
72405;BMP280;60395;52.020;113.548;2023-05-24T10:35:59;91241.81;;;18.82
72405;BMP280;60395;52.020;113.548;2023-05-24T10:39:03;91244.75;;;18.70
72405;BMP280;60395;52.020;113.548;2023-05-24T10:42:07;91251.94;;;18.63
72405;BMP280;60395;52.020;113.548;2023-05-24T10:48:53;91259.28;;;18.43
72405;BMP280;60395;52.020;113.548;2023-05-24T10:52:00;91258.75;;;18.32
72405;BMP280;60395;52.020;113.548;2023-05-24T10:55:06;91262.28;;;18.20
72405;BMP280;60395;52.020;113.548;2023-05-24T10:58:11;91263.75;;;18.08
72405;BMP280;60395;52.020;113.548;2023-05-24T11:01:31;91263.19;;;17.97
72405;BMP280;60395;52.020;113.548;2023-05-24T11:04:44;91266.19;;;17.83
72405;BMP280;60395;52.020;113.548;2023-05-24T11:07:48;91262.75;;;17.65
72405;BMP280;60395;52.020;113.548;2023-05-24T11:11:08;91281.59;;;17.61
72405;BMP280;60395;52.020;113.548;2023-05-24T11:14:29;91273.06;;;17.50
72405;BMP280;60395;52.020;113.548;2023-05-24T11:18:13;91280.16;;;17.43
72405;BMP280;60395;52.020;113.548;2023-05-24T11:21:18;91277.41;;;17.34
72405;BMP280;60395;52.020;113.548;2023-05-24T11:24:22;91278.53;;;17.37
72405;BMP280;60395;52.020;113.548;2023-05-24T11:27:27;91290.81;;;17.32
72405;BMP280;60395;52.020;113.548;2023-05-24T11:30:32;91291.72;;;17.29
72405;BMP280;60395;52.020;113.548;2023-05-24T11:33:40;91291.19;;;17.37
72405;BMP280;60395;52.020;113.548;2023-05-24T11:36:45;91299.50;;;17.41
72405;BMP280;60395;52.020;113.548;2023-05-24T11:39:50;91298.75;;;17.43
72405;BMP280;60395;52.020;113.548;2023-05-24T11:42:57;91298.13;;;17.42
72405;BMP280;60395;52.020;113.548;2023-05-24T11:46:02;91294.97;;;17.40
72405;BMP280;60395;52.020;113.548;2023-05-24T11:49:06;91298.63;;;17.34
72405;BMP280;60395;52.020;113.548;2023-05-24T11:52:14;91292.34;;;17.29
72405;BMP280;60395;52.020;113.548;2023-05-24T11:55:25;91297.16;;;17.27
72405;BMP280;60395;52.020;113.548;2023-05-24T11:58:43;91299.22;;;17.16
72405;BMP280;60395;52.020;113.548;2023-05-24T12:02:02;91298.09;;;17.02
72405;BMP280;60395;52.020;113.548;2023-05-24T12:05:08;91304.03;;;16.92
72405;BMP280;60395;52.020;113.548;2023-05-24T12:08:14;91313.53;;;16.78
72405;BMP280;60395;52.020;113.548;2023-05-24T12:11:19;91313.81;;;16.64
72405;BMP280;60395;52.020;113.548;2023-05-24T12:14:29;91320.00;;;16.50
72405;BMP280;60395;52.020;113.548;2023-05-24T12:17:36;91318.34;;;16.33
72405;BMP280;60395;52.020;113.548;2023-05-24T12:20:44;91324.47;;;16.19
72405;BMP280;60395;52.020;113.548;2023-05-24T12:23:48;91335.69;;;16.09
72405;BMP280;60395;52.020;113.548;2023-05-24T12:27:02;91333.03;;;15.99
72405;BMP280;60395;52.020;113.548;2023-05-24T12:30:11;91339.66;;;15.87
72405;BMP280;60395;52.020;113.548;2023-05-24T12:33:24;91344.28;;;15.76
72405;BMP280;60395;52.020;113.548;2023-05-24T12:36:32;91347.66;;;15.64
72405;BMP280;60395;52.020;113.548;2023-05-24T12:39:37;91350.25;;;15.53
72405;BMP280;60395;52.020;113.548;2023-05-24T12:42:52;91348.81;;;15.44
72405;BMP280;60395;52.020;113.548;2023-05-24T12:46:05;91348.03;;;15.35
72405;BMP280;60395;52.020;113.548;2023-05-24T12:49:09;91346.06;;;15.22
72405;BMP280;60395;52.020;113.548;2023-05-24T12:52:15;91357.94;;;15.11
72405;BMP280;60395;52.020;113.548;2023-05-24T12:55:23;91366.00;;;15.09
72405;BMP280;60395;52.020;113.548;2023-05-24T12:58:29;91352.22;;;14.83
72405;BMP280;60395;52.020;113.548;2023-05-24T13:01:43;91361.53;;;14.70
72405;BMP280;60395;52.020;113.548;2023-05-24T13:04:56;91362.66;;;14.37
72405;BMP280;60395;52.020;113.548;2023-05-24T13:08:00;91355.44;;;14.10
72405;BMP280;60395;52.020;113.548;2023-05-24T13:11:06;91366.75;;;13.83
72405;BMP280;60395;52.020;113.548;2023-05-24T13:14:10;91363.75;;;13.64
72405;BMP280;60395;52.020;113.548;2023-05-24T13:17:16;91371.38;;;13.43
72405;BMP280;60395;52.020;113.548;2023-05-24T13:20:22;91365.25;;;13.34
72405;BMP280;60395;52.020;113.548;2023-05-24T13:23:27;91363.94;;;13.20
72405;BMP280;60395;52.020;113.548;2023-05-24T13:26:32;91365.03;;;13.11
72405;BMP280;60395;52.020;113.548;2023-05-24T13:29:39;91355.06;;;12.99
72405;BMP280;60395;52.020;113.548;2023-05-24T13:33:01;91355.38;;;12.92
72405;BMP280;60395;52.020;113.548;2023-05-24T13:36:05;91359.91;;;12.79
72405;BMP280;60395;52.020;113.548;2023-05-24T13:39:12;91357.19;;;12.67
72405;BMP280;60395;52.020;113.548;2023-05-24T13:42:18;91361.41;;;12.47
72405;BMP280;60395;52.020;113.548;2023-05-24T13:45:27;91355.50;;;12.32
72405;BMP280;60395;52.020;113.548;2023-05-24T13:48:33;91373.13;;;12.21
72405;BMP280;60395;52.020;113.548;2023-05-24T13:51:37;91368.28;;;12.11
72405;BMP280;60395;52.020;113.548;2023-05-24T13:54:42;91375.25;;;12.02
72405;BMP280;60395;52.020;113.548;2023-05-24T13:57:45;91378.22;;;11.94
72405;BMP280;60395;52.020;113.548;2023-05-24T14:00:53;91370.59;;;11.88
72405;BMP280;60395;52.020;113.548;2023-05-24T14:04:01;91373.94;;;11.86
72405;BMP280;60395;52.020;113.548;2023-05-24T14:07:04;91374.31;;;11.78
72405;BMP280;60395;52.020;113.548;2023-05-24T14:10:10;91368.09;;;11.69
72405;BMP280;60395;52.020;113.548;2023-05-24T14:13:14;91371.53;;;11.65
72405;BMP280;60395;52.020;113.548;2023-05-24T14:16:38;91360.63;;;11.59
72405;BMP280;60395;52.020;113.548;2023-05-24T14:19:41;91360.81;;;11.55
72405;BMP280;60395;52.020;113.548;2023-05-24T14:22:45;91357.84;;;11.46
72405;BMP280;60395;52.020;113.548;2023-05-24T14:25:48;91362.03;;;11.41
72405;BMP280;60395;52.020;113.548;2023-05-24T14:28:53;91363.78;;;11.30
72405;BMP280;60395;52.020;113.548;2023-05-24T14:31:58;91368.03;;;11.23
72405;BMP280;60395;52.020;113.548;2023-05-24T14:35:02;91357.13;;;11.16
72405;BMP280;60395;52.020;113.548;2023-05-24T14:38:06;91364.75;;;11.22
72405;BMP280;60395;52.020;113.548;2023-05-24T14:41:11;91364.09;;;11.22
72405;BMP280;60395;52.020;113.548;2023-05-24T14:44:14;91365.44;;;11.21
72405;BMP280;60395;52.020;113.548;2023-05-24T14:47:18;91363.00;;;11.17
72405;BMP280;60395;52.020;113.548;2023-05-24T14:50:21;91369.13;;;11.11
72405;BMP280;60395;52.020;113.548;2023-05-24T14:53:25;91378.44;;;11.08
72405;BMP280;60395;52.020;113.548;2023-05-24T14:56:28;91375.97;;;11.04
72405;BMP280;60395;52.020;113.548;2023-05-24T14:59:32;91368.81;;;11.03
72405;BMP280;60395;52.020;113.548;2023-05-24T15:02:36;91376.59;;;11.05
72405;BMP280;60395;52.020;113.548;2023-05-24T15:05:39;91381.84;;;11.05
72405;BMP280;60395;52.020;113.548;2023-05-24T15:08:46;91379.97;;;11.03
72405;BMP280;60395;52.020;113.548;2023-05-24T15:11:50;91381.38;;;11.00
72405;BMP280;60395;52.020;113.548;2023-05-24T15:14:53;91380.34;;;10.93
72405;BMP280;60395;52.020;113.548;2023-05-24T15:17:57;91383.13;;;10.89
72405;BMP280;60395;52.020;113.548;2023-05-24T15:21:01;91384.00;;;10.84
72405;BMP280;60395;52.020;113.548;2023-05-24T15:24:05;91375.78;;;10.75
72405;BMP280;60395;52.020;113.548;2023-05-24T15:27:09;91374.16;;;10.65
72405;BMP280;60395;52.020;113.548;2023-05-24T15:30:13;91382.22;;;10.61
72405;BMP280;60395;52.020;113.548;2023-05-24T15:33:16;91377.91;;;10.54
72405;BMP280;60395;52.020;113.548;2023-05-24T15:36:20;91380.09;;;10.47
72405;BMP280;60395;52.020;113.548;2023-05-24T15:39:23;91377.84;;;10.37
72405;BMP280;60395;52.020;113.548;2023-05-24T15:42:26;91376.94;;;10.26
72405;BMP280;60395;52.020;113.548;2023-05-24T15:45:30;91379.84;;;10.18
72405;BMP280;60395;52.020;113.548;2023-05-24T15:48:33;91377.50;;;10.10
72405;BMP280;60395;52.020;113.548;2023-05-24T15:51:36;91377.09;;;10.03
72405;BMP280;60395;52.020;113.548;2023-05-24T15:54:43;91375.88;;;10.00
72405;BMP280;60395;52.020;113.548;2023-05-24T15:57:46;91383.16;;;9.98
72405;BMP280;60395;52.020;113.548;2023-05-24T16:00:49;91387.06;;;9.99
72405;BMP280;60395;52.020;113.548;2023-05-24T16:03:54;91382.97;;;10.04
72405;BMP280;60395;52.020;113.548;2023-05-24T16:06:58;91386.03;;;10.10
72405;BMP280;60395;52.020;113.548;2023-05-24T16:10:01;91388.38;;;10.18
72405;BMP280;60395;52.020;113.548;2023-05-24T16:13:04;91392.69;;;10.26
72405;BMP280;60395;52.020;113.548;2023-05-24T16:16:08;91392.16;;;10.40
72405;BMP280;60395;52.020;113.548;2023-05-24T16:19:11;91394.44;;;10.50
72405;BMP280;60395;52.020;113.548;2023-05-24T16:22:15;91401.88;;;10.62
72405;BMP280;60395;52.020;113.548;2023-05-24T16:25:18;91413.34;;;10.71
72405;BMP280;60395;52.020;113.548;2023-05-24T16:28:21;91412.41;;;10.79
72405;BMP280;60395;52.020;113.548;2023-05-24T16:31:29;91423.25;;;10.88
72405;BMP280;60395;52.020;113.548;2023-05-24T16:34:33;91421.09;;;10.92
72405;BMP280;60395;52.020;113.548;2023-05-24T16:37:57;91424.28;;;10.95
72405;BMP280;60395;52.020;113.548;2023-05-24T16:41:00;91430.72;;;10.98
72405;BMP280;60395;52.020;113.548;2023-05-24T16:44:03;91426.44;;;11.07
72405;BMP280;60395;52.020;113.548;2023-05-24T16:47:07;91430.75;;;11.14
72405;BMP280;60395;52.020;113.548;2023-05-24T16:50:11;91426.53;;;11.21
72405;BMP280;60395;52.020;113.548;2023-05-24T16:53:17;91418.56;;;11.23
72405;BMP280;60395;52.020;113.548;2023-05-24T16:56:22;91425.09;;;11.24
72405;BMP280;60395;52.020;113.548;2023-05-24T16:59:25;91420.81;;;11.17
72405;BMP280;60395;52.020;113.548;2023-05-24T17:02:28;91428.69;;;11.17
72405;BMP280;60395;52.020;113.548;2023-05-24T17:05:32;91431.44;;;11.13
72405;BMP280;60395;52.020;113.548;2023-05-24T17:08:35;91430.81;;;11.12
72405;BMP280;60395;52.020;113.548;2023-05-24T17:11:39;91426.44;;;11.07
72405;BMP280;60395;52.020;113.548;2023-05-24T17:14:43;91422.91;;;10.96
72405;BMP280;60395;52.020;113.548;2023-05-24T17:17:47;91432.38;;;10.89
72405;BMP280;60395;52.020;113.548;2023-05-24T17:20:50;91428.06;;;10.81
72405;BMP280;60395;52.020;113.548;2023-05-24T17:23:54;91423.28;;;10.69
72405;BMP280;60395;52.020;113.548;2023-05-24T17:26:58;91441.44;;;10.56